createdAt,value
2022-10-26T00:01:19.036Z,13.55
2022-10-26T00:03:48.137Z,13.51
2022-10-26T00:06:19.287Z,13.46
2022-10-26T00:08:49.738Z,13.45
2022-10-26T00:11:18.791Z,13.42
2022-10-26T00:13:48.195Z,13.41
2022-10-26T00:16:19.003Z,13.41
2022-10-26T00:18:47.792Z,13.41
2022-10-26T00:21:16.284Z,13.42
2022-10-26T00:23:44.710Z,13.40
2022-10-26T00:26:14.504Z,13.37
2022-10-26T00:28:43.208Z,13.37
2022-10-26T00:31:14.682Z,13.35
2022-10-26T00:33:43.011Z,13.34
2022-10-26T00:36:13.889Z,13.34
2022-10-26T00:38:45.942Z,13.33
2022-10-26T00:41:17.983Z,13.31
2022-10-26T00:43:46.523Z,13.34
2022-10-26T00:46:18.267Z,13.40
2022-10-26T00:48:51.083Z,13.44
2022-10-26T00:51:26.575Z,13.46
2022-10-26T00:53:56.559Z,13.47
2022-10-26T00:56:26.551Z,13.47
2022-10-26T00:58:56.508Z,13.49
2022-10-26T01:01:24.963Z,13.49
2022-10-26T01:03:54.683Z,13.49
2022-10-26T01:06:23.229Z,13.48
2022-10-26T01:08:51.899Z,13.47
2022-10-26T01:11:20.845Z,13.50
2022-10-26T01:13:53.589Z,13.53
2022-10-26T01:16:42.034Z,13.57
2022-10-26T01:19:47.790Z,13.60
2022-10-26T01:22:19.948Z,13.64
2022-10-26T01:25:03.899Z,13.66
2022-10-26T01:27:36.585Z,13.66
2022-10-26T01:30:32.684Z,13.67
2022-10-26T01:33:16.386Z,13.67
2022-10-26T01:35:53.627Z,13.65
2022-10-26T01:38:30.832Z,13.68
2022-10-26T01:41:06.008Z,13.70
2022-10-26T01:43:38.656Z,13.74
2022-10-26T01:46:10.773Z,13.77
2022-10-26T01:48:41.444Z,13.80
2022-10-26T01:51:11.319Z,13.82
2022-10-26T01:53:46.782Z,13.79
2022-10-26T01:56:20.736Z,13.80
2022-10-26T01:59:05.404Z,13.79
2022-10-26T02:01:57.031Z,13.82
2022-10-26T02:04:39.238Z,13.86
2022-10-26T02:07:19.128Z,13.90
2022-10-26T02:09:59.467Z,13.88
2022-10-26T02:12:39.290Z,13.82
2022-10-26T02:15:13.376Z,13.80
2022-10-26T02:17:49.927Z,13.76
2022-10-26T02:20:23.284Z,13.69
2022-10-26T02:22:53.816Z,13.69
2022-10-26T02:25:26.936Z,13.68
2022-10-26T02:27:59.433Z,13.64
2022-10-26T02:30:28.156Z,13.61
2022-10-26T02:33:01.233Z,13.58
2022-10-26T02:35:32.640Z,13.57
2022-10-26T02:38:03.820Z,13.55
2022-10-26T02:40:35.447Z,13.46
2022-10-26T02:43:07.606Z,13.42
2022-10-26T02:45:40.468Z,13.39
2022-10-26T02:48:12.148Z,13.38
2022-10-26T02:50:51.933Z,13.37
2022-10-26T02:53:26.936Z,13.37
2022-10-26T02:55:55.383Z,13.34
2022-10-26T02:58:28.798Z,13.28
2022-10-26T03:00:58.258Z,13.25
2022-10-26T03:03:27.999Z,13.14
2022-10-26T03:05:56.391Z,13.05
2022-10-26T03:08:25.161Z,13.00
2022-10-26T03:10:53.512Z,13.00
2022-10-26T03:13:21.892Z,12.95
2022-10-26T03:15:50.232Z,12.95
2022-10-26T03:18:18.763Z,12.96
2022-10-26T03:20:57.925Z,12.97
2022-10-26T03:23:26.267Z,13.04
2022-10-26T03:25:58.119Z,13.10
2022-10-26T03:28:26.697Z,13.15
2022-10-26T03:30:55.087Z,13.22
2022-10-26T03:33:27.027Z,13.25
2022-10-26T03:35:58.163Z,13.28
2022-10-26T03:38:26.499Z,13.33
2022-10-26T03:40:54.827Z,13.35
2022-10-26T03:43:23.187Z,13.36
2022-10-26T03:45:51.527Z,13.34
2022-10-26T03:48:19.852Z,13.36
2022-10-26T03:50:48.221Z,13.36
2022-10-26T03:53:17.874Z,13.36
2022-10-26T03:55:46.482Z,13.36
2022-10-26T03:58:14.903Z,13.36
2022-10-26T04:00:43.257Z,13.37
2022-10-26T04:03:11.624Z,13.38
2022-10-26T04:05:39.997Z,13.40
2022-10-26T04:08:09.704Z,13.39
2022-10-26T04:10:39.396Z,13.39
2022-10-26T04:13:07.840Z,13.42
2022-10-26T04:15:36.224Z,13.41
2022-10-26T04:18:04.937Z,13.42
2022-10-26T04:20:35.020Z,13.43
2022-10-26T04:23:05.358Z,13.42
2022-10-26T04:25:34.749Z,13.42
2022-10-26T04:28:06.436Z,13.39
2022-10-26T04:30:35.921Z,13.38
2022-10-26T04:33:04.747Z,13.36
2022-10-26T04:35:33.232Z,13.36
2022-10-26T04:38:02.597Z,13.36
2022-10-26T04:40:32.796Z,13.38
2022-10-26T04:43:01.352Z,13.39
2022-10-26T04:45:31.772Z,13.41
2022-10-26T04:48:01.259Z,13.42
2022-10-26T04:50:29.647Z,13.45
2022-10-26T04:52:58.116Z,13.46
2022-10-26T04:55:27.028Z,13.47
2022-10-26T04:57:57.306Z,13.50
2022-10-26T05:00:39.695Z,13.52
2022-10-26T05:03:08.976Z,13.54
2022-10-26T05:05:37.774Z,13.57
2022-10-26T05:08:06.677Z,13.58
2022-10-26T05:10:35.356Z,13.58
2022-10-26T05:13:03.735Z,13.58
2022-10-26T05:15:32.421Z,13.57
2022-10-26T05:18:03.861Z,13.56
2022-10-26T05:20:34.692Z,13.54
2022-10-26T05:23:04.943Z,13.55
2022-10-26T05:25:35.894Z,13.55
2022-10-26T05:28:07.953Z,13.56
2022-10-26T05:30:38.854Z,13.56
2022-10-26T05:33:10.675Z,13.55
2022-10-26T05:35:39.341Z,13.57
2022-10-26T05:38:10.781Z,13.58
2022-10-26T05:40:39.237Z,13.62
2022-10-26T05:43:07.545Z,13.63
2022-10-26T05:45:35.959Z,13.64
2022-10-26T05:48:04.314Z,13.63
2022-10-26T05:50:33.988Z,13.67
2022-10-26T05:53:02.353Z,13.68
2022-10-26T05:55:31.499Z,13.70
2022-10-26T05:58:00.365Z,13.70
2022-10-26T06:00:30.534Z,13.69
2022-10-26T06:03:13.907Z,13.73
2022-10-26T06:05:52.291Z,13.74
2022-10-26T06:08:21.359Z,13.79
2022-10-26T06:10:50.893Z,13.84
2022-10-26T06:13:19.823Z,13.88
2022-10-26T06:16:02.601Z,13.88
2022-10-26T06:18:40.880Z,13.90
2022-10-26T06:21:25.257Z,13.95
2022-10-26T06:23:59.503Z,13.97
2022-10-26T06:26:40.842Z,13.97
2022-10-26T06:29:20.304Z,13.97
2022-10-26T06:31:49.155Z,13.94
2022-10-26T06:34:24.042Z,13.93
2022-10-26T06:39:30.786Z,13.90
2022-10-26T06:41:59.824Z,13.89
2022-10-26T06:44:29.149Z,13.88
2022-10-26T06:47:07.092Z,13.87
2022-10-26T06:49:39.973Z,13.88
2022-10-26T06:52:17.193Z,13.90
2022-10-26T06:54:51.316Z,13.94
2022-10-26T06:57:21.642Z,13.95
2022-10-26T06:59:52.728Z,13.95
2022-10-26T07:02:21.569Z,13.94
2022-10-26T07:04:50.123Z,13.95
2022-10-26T07:07:22.007Z,13.95
2022-10-26T07:09:51.120Z,13.97
2022-10-26T07:12:19.733Z,14.01
2022-10-26T07:14:48.143Z,14.01
2022-10-26T07:17:17.102Z,14.04
2022-10-26T07:19:45.837Z,14.05
2022-10-26T07:22:14.151Z,14.07
2022-10-26T07:24:43.847Z,14.11
2022-10-26T07:27:12.239Z,14.15
2022-10-26T07:29:40.614Z,14.20
2022-10-26T07:32:09.888Z,14.25
2022-10-26T07:34:38.581Z,14.30
2022-10-26T07:37:07.359Z,14.38
2022-10-26T07:39:35.769Z,14.45
2022-10-26T07:42:05.758Z,14.51
2022-10-26T07:44:34.229Z,14.57
2022-10-26T07:47:02.627Z,14.62
2022-10-26T07:49:30.975Z,14.67
2022-10-26T07:51:59.321Z,14.73
2022-10-26T07:54:27.930Z,14.75
2022-10-26T07:56:56.671Z,14.80
2022-10-26T07:59:26.516Z,14.84
2022-10-26T08:01:57.195Z,14.89
2022-10-26T08:04:25.588Z,14.94
2022-10-26T08:06:53.948Z,15.00
2022-10-26T08:09:22.364Z,15.04
2022-10-26T08:11:50.760Z,15.10
2022-10-26T08:14:19.159Z,15.13
2022-10-26T08:16:52.444Z,15.14
2022-10-26T08:19:21.284Z,15.15
2022-10-26T08:21:49.667Z,15.20
2022-10-26T08:24:18.020Z,15.26
2022-10-26T08:26:46.589Z,15.29
2022-10-26T08:29:14.896Z,15.31
2022-10-26T08:31:43.728Z,15.32
2022-10-26T08:34:13.520Z,15.31
2022-10-26T08:36:41.981Z,15.29
2022-10-26T08:39:10.416Z,15.30
2022-10-26T08:41:43.159Z,15.31
2022-10-26T08:44:25.915Z,15.33
2022-10-26T08:46:58.001Z,15.36
2022-10-26T08:49:31.777Z,15.36
2022-10-26T08:52:03.733Z,15.36
2022-10-26T08:54:38.331Z,15.37
2022-10-26T08:57:17.244Z,15.38
2022-10-26T08:59:49.962Z,15.39
2022-10-26T09:02:19.108Z,15.39
2022-10-26T09:04:49.132Z,15.38
2022-10-26T09:07:34.711Z,15.36
2022-10-26T09:10:13.810Z,15.36
2022-10-26T09:12:49.883Z,15.36
2022-10-26T09:15:28.074Z,15.39
2022-10-26T09:18:05.468Z,15.40
2022-10-26T09:20:50.940Z,15.45
2022-10-26T09:23:37.655Z,15.51
2022-10-26T09:26:11.727Z,15.60
2022-10-26T09:28:42.559Z,15.68
2022-10-26T09:31:16.416Z,15.80
2022-10-26T09:33:44.807Z,15.93
2022-10-26T09:36:20.313Z,16.15
2022-10-26T09:38:54.893Z,16.41
2022-10-26T09:41:31.796Z,16.63
2022-10-26T09:44:07.917Z,16.75
2022-10-26T09:46:46.708Z,16.81
2022-10-26T09:49:18.780Z,16.92
2022-10-26T09:51:49.659Z,17.01
2022-10-26T09:54:19.621Z,17.09
2022-10-26T09:56:53.093Z,17.20
2022-10-26T09:59:23.678Z,17.34
2022-10-26T10:01:52.208Z,17.38
2022-10-26T10:04:24.105Z,17.27
2022-10-26T10:07:13.236Z,17.13
2022-10-26T10:09:41.612Z,17.03
2022-10-26T10:12:20.402Z,16.93
2022-10-26T10:14:58.519Z,16.85
2022-10-26T10:17:27.513Z,16.80
2022-10-26T10:19:56.031Z,16.73
2022-10-26T10:22:27.531Z,16.66
2022-10-26T10:24:57.945Z,16.64
2022-10-26T10:27:28.188Z,16.64
2022-10-26T10:30:01.436Z,16.64
2022-10-26T10:32:36.990Z,16.65
2022-10-26T10:35:26.051Z,16.70
2022-10-26T10:37:55.737Z,16.74
2022-10-26T10:40:27.156Z,16.73
2022-10-26T10:43:04.405Z,16.71
2022-10-26T10:45:33.437Z,16.71
2022-10-26T10:48:04.244Z,16.71
2022-10-26T10:50:34.560Z,16.74
2022-10-26T10:53:20.303Z,16.85
2022-10-26T10:55:59.745Z,16.99
2022-10-26T10:58:38.388Z,17.09
2022-10-26T11:01:14.072Z,17.23
2022-10-26T11:03:55.520Z,17.41
2022-10-26T11:06:28.780Z,17.68
2022-10-26T11:09:04.003Z,17.98
2022-10-26T11:11:41.704Z,18.16
2022-10-26T11:14:18.156Z,18.18
2022-10-26T11:16:51.539Z,18.12
2022-10-26T11:19:24.717Z,18.08
2022-10-26T11:21:55.487Z,18.04
2022-10-26T11:24:30.035Z,18.08
2022-10-26T11:27:05.020Z,18.13
2022-10-26T11:29:41.664Z,18.18
2022-10-26T11:32:17.947Z,18.27
2022-10-26T11:34:51.942Z,18.38
2022-10-26T11:37:28.567Z,18.41
2022-10-26T11:40:09.767Z,18.36
2022-10-26T11:42:45.884Z,18.27
2022-10-26T11:45:20.944Z,18.19
2022-10-26T11:47:54.947Z,18.10
2022-10-26T11:50:26.655Z,18.06
2022-10-26T11:53:00.725Z,17.99
2022-10-26T11:55:31.267Z,17.96
2022-10-26T11:58:00.143Z,17.95
2022-10-26T12:00:31.069Z,17.93
2022-10-26T12:03:11.460Z,17.88
2022-10-26T12:05:48.344Z,17.83
2022-10-26T12:08:23.198Z,17.79
2022-10-26T12:11:01.694Z,17.74
2022-10-26T12:13:38.001Z,17.72
2022-10-26T12:16:14.148Z,17.73
2022-10-26T12:18:55.873Z,17.73
2022-10-26T12:21:28.677Z,17.75
2022-10-26T12:24:00.001Z,17.76
2022-10-26T12:26:59.648Z,17.82
2022-10-26T12:29:47.012Z,17.85
2022-10-26T12:32:49.278Z,17.89
2022-10-26T12:35:36.193Z,17.92
2022-10-26T12:38:50.859Z,17.90
2022-10-26T12:41:24.850Z,17.88
2022-10-26T12:43:59.340Z,17.87
2022-10-26T12:46:43.278Z,17.90
2022-10-26T12:49:57.239Z,17.93
2022-10-26T12:52:49.062Z,17.95
2022-10-26T12:55:54.051Z,17.93
2022-10-26T12:58:36.443Z,17.91
2022-10-26T13:01:37.462Z,17.89
2022-10-26T13:04:27.682Z,17.84
2022-10-26T13:07:16.736Z,17.79
2022-10-26T13:09:47.441Z,17.77
2022-10-26T13:12:16.140Z,17.74
2022-10-26T13:14:58.452Z,17.71
2022-10-26T13:17:31.499Z,17.68
2022-10-26T13:20:01.977Z,17.63
2022-10-26T13:22:31.061Z,17.56
2022-10-26T13:25:02.222Z,17.50
2022-10-26T13:27:45.085Z,17.44
2022-10-26T13:30:44.109Z,17.43
2022-10-26T13:33:20.890Z,17.39
2022-10-26T13:35:50.416Z,17.36
2022-10-26T13:38:22.541Z,17.34
2022-10-26T13:40:51.334Z,17.33
2022-10-26T13:43:23.605Z,17.32
2022-10-26T13:45:56.423Z,17.30
2022-10-26T13:48:32.830Z,17.28
2022-10-26T13:51:04.426Z,17.24
2022-10-26T13:53:41.388Z,17.22
2022-10-26T13:56:20.588Z,17.18
2022-10-26T13:58:52.783Z,17.13
2022-10-26T14:01:23.103Z,17.12
2022-10-26T14:03:53.076Z,17.10
2022-10-26T14:06:27.596Z,17.07
2022-10-26T14:08:59.313Z,17.06
2022-10-26T14:11:33.711Z,17.05
2022-10-26T14:14:03.816Z,17.03
2022-10-26T14:16:35.423Z,17.02
2022-10-26T14:19:05.222Z,17.00
2022-10-26T14:21:33.868Z,16.99
2022-10-26T14:24:07.534Z,16.97
2022-10-26T14:26:41.486Z,16.95
2022-10-26T14:29:18.326Z,16.94
2022-10-26T14:31:46.834Z,16.93
2022-10-26T14:34:17.760Z,16.93
2022-10-26T14:36:49.832Z,16.93
2022-10-26T14:39:25.205Z,16.93
2022-10-26T14:41:56.101Z,16.92
2022-10-26T14:44:27.256Z,16.93
2022-10-26T14:46:55.617Z,16.93
2022-10-26T14:49:27.674Z,16.94
2022-10-26T14:51:58.949Z,16.94
2022-10-26T14:54:29.964Z,16.95
2022-10-26T14:56:58.596Z,16.93
2022-10-26T14:59:29.278Z,16.92
2022-10-26T15:02:00.048Z,16.92
2022-10-26T15:04:32.740Z,16.91
2022-10-26T15:07:10.438Z,16.90
2022-10-26T15:09:42.859Z,16.89
2022-10-26T15:12:28.409Z,16.88
2022-10-26T15:14:57.849Z,16.88
2022-10-26T15:17:32.164Z,16.88
2022-10-26T15:20:06.804Z,16.87
2022-10-26T15:22:35.670Z,16.87
2022-10-26T15:25:06.395Z,16.86
2022-10-26T15:27:34.975Z,16.85
2022-10-26T15:30:24.845Z,16.82
2022-10-26T15:32:54.624Z,16.79
2022-10-26T15:35:28.464Z,16.77
2022-10-26T15:37:58.245Z,16.73
2022-10-26T15:40:29.058Z,16.73
2022-10-26T15:43:01.217Z,16.71
2022-10-26T15:45:33.036Z,16.70
2022-10-26T15:48:19.311Z,16.68
2022-10-26T15:50:49.139Z,16.67
2022-10-26T15:53:22.765Z,16.65
2022-10-26T15:55:53.638Z,16.62
2022-10-26T15:58:22.506Z,16.58
2022-10-26T16:00:50.907Z,16.55
2022-10-26T16:03:23.038Z,16.53
2022-10-26T16:05:57.457Z,16.50
2022-10-26T16:08:27.776Z,16.49
2022-10-26T16:10:56.224Z,16.46
2022-10-26T16:13:24.537Z,16.42
2022-10-26T16:15:52.863Z,16.40
2022-10-26T16:18:21.264Z,16.37
2022-10-26T16:20:49.693Z,16.35
2022-10-26T16:23:19.608Z,16.33
2022-10-26T16:25:48.399Z,16.33
2022-10-26T16:28:17.744Z,16.31
2022-10-26T16:30:46.175Z,16.29
2022-10-26T16:33:14.756Z,16.27
2022-10-26T16:35:43.361Z,16.26
2022-10-26T16:38:11.798Z,16.25
2022-10-26T16:40:43.240Z,16.24
2022-10-26T16:43:11.696Z,16.21
2022-10-26T16:45:41.328Z,16.22
2022-10-26T16:48:14.465Z,16.21
2022-10-26T16:50:42.968Z,16.21
2022-10-26T16:53:11.518Z,16.22
2022-10-26T16:58:14.456Z,16.21
2022-10-26T17:00:42.836Z,16.22
2022-10-26T17:03:11.195Z,16.21
2022-10-26T17:05:39.540Z,16.21
2022-10-26T17:08:08.482Z,16.21
2022-10-26T17:10:36.845Z,16.21
2022-10-26T17:13:06.829Z,16.20
2022-10-26T17:15:35.181Z,16.19
2022-10-26T17:18:03.552Z,16.17
2022-10-26T17:20:31.909Z,16.15
2022-10-26T17:23:00.384Z,16.14
2022-10-26T17:25:28.784Z,16.14
2022-10-26T17:27:57.243Z,16.16
2022-10-26T17:30:28.511Z,16.16
2022-10-26T17:32:59.190Z,16.16
2022-10-26T17:35:27.620Z,16.15
2022-10-26T17:37:56.010Z,16.13
2022-10-26T17:40:24.403Z,16.13
2022-10-26T17:42:52.729Z,16.14
2022-10-26T17:45:21.202Z,16.12
2022-10-26T17:47:51.357Z,16.11
2022-10-26T17:50:20.138Z,16.11
2022-10-26T17:52:48.668Z,16.10
2022-10-26T17:55:17.197Z,16.10
2022-10-26T17:57:45.761Z,16.09
2022-10-26T18:00:15.431Z,16.09
2022-10-26T18:02:44.056Z,16.09
2022-10-26T18:05:14.126Z,16.10
2022-10-26T18:07:42.489Z,16.09
2022-10-26T18:10:26.297Z,16.09
2022-10-26T18:12:59.661Z,16.09
2022-10-26T18:15:28.249Z,16.08
2022-10-26T18:17:58.643Z,16.08
2022-10-26T18:20:30.419Z,16.07
2022-10-26T18:22:58.846Z,16.06
2022-10-26T18:25:28.034Z,16.06
2022-10-26T18:27:56.596Z,16.05
2022-10-26T18:30:25.345Z,16.01
2022-10-26T18:32:54.286Z,15.99
2022-10-26T18:35:24.105Z,15.99
2022-10-26T18:37:54.113Z,15.98
2022-10-26T18:40:22.773Z,15.97
2022-10-26T18:42:51.195Z,15.95
2022-10-26T18:45:19.560Z,15.94
2022-10-26T18:47:48.126Z,15.92
2022-10-26T18:50:16.996Z,15.91
2022-10-26T18:52:46.236Z,15.89
2022-10-26T18:55:16.096Z,15.87
2022-10-26T18:57:44.575Z,15.85
2022-10-26T19:00:14.471Z,15.81
2022-10-26T19:02:42.857Z,15.79
2022-10-26T19:05:11.227Z,15.76
2022-10-26T19:07:40.037Z,15.73
2022-10-26T19:10:09.828Z,15.72
2022-10-26T19:12:39.579Z,15.70
2022-10-26T19:15:08.653Z,15.68
2022-10-26T19:17:37.077Z,15.65
2022-10-26T19:20:06.504Z,15.63
2022-10-26T19:22:34.860Z,15.61
2022-10-26T19:25:03.860Z,15.59
2022-10-26T19:27:34.509Z,15.58
2022-10-26T19:30:04.444Z,15.57
2022-10-26T19:32:32.820Z,15.57
2022-10-26T19:35:01.724Z,15.56
2022-10-26T19:37:31.192Z,15.55
2022-10-26T19:39:59.790Z,15.55
2022-10-26T19:42:28.242Z,15.53
2022-10-26T19:44:56.609Z,15.52
2022-10-26T19:47:26.868Z,15.53
2022-10-26T19:49:55.338Z,15.52
2022-10-26T19:52:23.681Z,15.50
2022-10-26T19:54:52.325Z,15.49
2022-10-26T19:57:20.837Z,15.47
2022-10-26T19:59:49.187Z,15.46
2022-10-26T20:02:17.598Z,15.43
2022-10-26T20:04:47.302Z,15.41
2022-10-26T20:07:15.875Z,15.39
2022-10-26T20:09:44.234Z,15.38
2022-10-26T20:12:13.912Z,15.37
2022-10-26T20:14:42.380Z,15.36
2022-10-26T20:17:10.837Z,15.36
2022-10-26T20:19:39.152Z,15.35
2022-10-26T20:22:08.841Z,15.33
2022-10-26T20:24:39.639Z,15.32
2022-10-26T20:27:08.009Z,15.31
2022-10-26T20:29:36.382Z,15.28
2022-10-26T20:32:04.848Z,15.27
2022-10-26T20:34:33.222Z,15.25
2022-10-26T20:37:01.623Z,15.24
2022-10-26T20:39:31.973Z,15.24
2022-10-26T20:42:00.965Z,15.22
2022-10-26T20:44:34.510Z,15.21
2022-10-26T20:47:03.399Z,15.19
2022-10-26T20:49:32.411Z,15.16
2022-10-26T20:52:20.600Z,15.14
2022-10-26T20:54:57.051Z,15.11
2022-10-26T20:57:31.817Z,15.10
2022-10-26T21:00:04.232Z,15.08
2022-10-26T21:02:32.848Z,15.08
2022-10-26T21:05:01.161Z,15.07
2022-10-26T21:07:29.621Z,15.05
2022-10-26T21:09:59.307Z,15.04
2022-10-26T21:12:27.681Z,15.03
2022-10-26T21:14:56.044Z,15.03
2022-10-26T21:17:24.448Z,15.02
2022-10-26T21:19:52.813Z,15.02
2022-10-26T21:22:21.188Z,15.00
2022-10-26T21:24:49.612Z,14.99
2022-10-26T21:27:19.334Z,14.98
2022-10-26T21:29:47.677Z,14.97
2022-10-26T21:32:16.036Z,14.95
2022-10-26T21:34:44.352Z,14.95
2022-10-26T21:37:12.831Z,14.93
2022-10-26T21:39:41.276Z,14.91
2022-10-26T21:42:09.870Z,14.91
2022-10-26T21:44:41.275Z,14.89
2022-10-26T21:47:10.512Z,14.88
2022-10-26T21:49:39.102Z,14.88
2022-10-26T21:52:08.538Z,14.87
2022-10-26T21:54:36.958Z,14.87
2022-10-26T21:57:05.484Z,14.86
2022-10-26T21:59:33.853Z,14.84
2022-10-26T22:02:07.745Z,14.86
2022-10-26T22:04:39.863Z,14.86
2022-10-26T22:07:08.216Z,14.87
2022-10-26T22:09:44.901Z,14.87
2022-10-26T22:12:25.118Z,14.87
2022-10-26T22:14:53.580Z,14.88
2022-10-26T22:17:23.299Z,14.87
2022-10-26T22:19:51.652Z,14.88
2022-10-26T22:22:20.029Z,14.89
2022-10-26T22:24:48.433Z,14.87
2022-10-26T22:27:17.110Z,14.87
2022-10-26T22:29:45.417Z,14.86
2022-10-26T22:32:13.754Z,14.85
2022-10-26T22:34:43.479Z,14.83
2022-10-26T22:37:11.771Z,14.83
2022-10-26T22:39:40.419Z,14.81
2022-10-26T22:42:08.743Z,14.81
2022-10-26T22:44:37.523Z,14.81
2022-10-26T22:47:05.905Z,14.80
2022-10-26T22:49:34.257Z,14.79
2022-10-26T22:52:03.976Z,14.78
2022-10-26T22:54:32.475Z,14.76
2022-10-26T22:57:00.756Z,14.76
2022-10-26T22:59:29.094Z,14.75
2022-10-26T23:01:57.565Z,14.74
2022-10-26T23:04:26.036Z,14.72
2022-10-26T23:06:54.392Z,14.70
2022-10-26T23:09:24.121Z,14.70
2022-10-26T23:11:52.459Z,14.70
2022-10-26T23:14:20.775Z,14.68
2022-10-26T23:16:49.133Z,14.68
2022-10-26T23:19:17.485Z,14.67
2022-10-26T23:21:45.819Z,14.66
2022-10-26T23:24:14.199Z,14.64
2022-10-26T23:26:43.960Z,14.62
2022-10-26T23:29:12.252Z,14.62
2022-10-26T23:31:40.607Z,14.63
2022-10-26T23:34:10.352Z,14.61
2022-10-26T23:36:38.707Z,14.60
2022-10-26T23:39:07.083Z,14.59
2022-10-26T23:41:35.403Z,14.58
2022-10-26T23:44:05.582Z,14.57
2022-10-26T23:46:34.112Z,14.57
2022-10-26T23:49:02.637Z,14.54
2022-10-26T23:51:30.945Z,14.52
2022-10-26T23:53:59.268Z,14.50
2022-10-26T23:56:27.705Z,14.48
2022-10-26T23:58:56.045Z,14.47
